»·PEaware :: N7060V KSBA-KONT

N7060V :: KSBA-KONT

FLIGHT INFORMATION

Flight Status: Arrived
Operator: Privately registered:
United States
More flights under this callsign
Pilot: Brad L. (9580)
Aircraft: MOONEY M-20 201 202 205 220 ATS MSE
(M20P)
More flights by this aircraft type
Origin: KSBA Santa Barbara Mun
United States
Destination: KONT Ontario Intl
United States
More flights between these airports :: More routes between these airports
Route: KWANG CMA VNY V186 PDZ
File this flight plan on PilotEdge
Remarks: TEC route SBAP16
Altitude:
(Current/Filed)
5,000ft
Speed:
(Current/Filed)
135kts
Departed: 15-Nov-20 03:48 PM
Arrived: 15-Nov-20 04:43 PM
Distance/Time
Traveled:
295nm/0:55
Distance/Time
To Go:
Arrived

Flight Plot

Page will automatically refresh every two minutes.


Map Options




Map Legend


Flown Route
Filed Route
Departure Airport
Arrival Airport
Navaid (VOR, NDB)
Fix

Horizontal Profiles

Position Reports

Time Latitude Longitude Heading Altitude Ground
Speed
15-Nov-20 15:31 34.432251 -119.835730 151 12ft 0kts
15-Nov-20 15:35 34.432251 -119.835730 151 12ft 0kts
15-Nov-20 15:36 34.432251 -119.835730 151 12ft 0kts
15-Nov-20 15:37 34.432251 -119.835730 151 12ft 0kts
15-Nov-20 15:38 34.432251 -119.835730 151 12ft 0kts
15-Nov-20 15:39 34.432251 -119.835730 151 12ft 0kts
15-Nov-20 15:40 34.432251 -119.835730 151 12ft 0kts
15-Nov-20 15:41 34.432251 -119.835730 151 12ft 0kts
15-Nov-20 15:42 34.432251 -119.835730 151 12ft 0kts
15-Nov-20 15:43 34.431762 -119.836258 250 12ft 13kts
15-Nov-20 15:44 34.430724 -119.839625 252 12ft 9kts
15-Nov-20 15:45 34.430683 -119.839785 251 12ft 0kts
15-Nov-20 15:46 34.430072 -119.840154 162 12ft 12kts
15-Nov-20 15:47 34.411578 -119.833120 163 566ft 91kts
15-Nov-20 15:48 34.385610 -119.821472 163 1514ft 103kts
15-Nov-20 15:49 34.357711 -119.808233 161 2444ft 109kts
15-Nov-20 15:50 34.332782 -119.786632 100 3183ft 130kts
15-Nov-20 15:51 34.326798 -119.739891 99 3708ft 147kts
15-Nov-20 15:52 34.320364 -119.689584 99 4217ft 155kts
15-Nov-20 15:53 34.311850 -119.637572 102 4727ft 158kts
15-Nov-20 15:54 34.301994 -119.584127 102 5008ft 172kts
15-Nov-20 15:55 34.290997 -119.525056 101 5005ft 185kts
15-Nov-20 15:56 34.279952 -119.463796 101 5003ft 187kts
15-Nov-20 15:57 34.268645 -119.402192 101 5002ft 188kts
15-Nov-20 15:58 34.257205 -119.340607 101 5009ft 188kts
15-Nov-20 15:59 34.245686 -119.278875 101 5008ft 187kts
15-Nov-20 16:00 34.234278 -119.217387 101 5007ft 187kts
15-Nov-20 16:01 34.223037 -119.155903 101 5005ft 187kts
15-Nov-20 16:02 34.212205 -119.094154 91 4995ft 187kts
15-Nov-20 16:04 34.213285 -119.031726 88 5003ft 186kts
15-Nov-20 16:05 34.214010 -118.969279 87 5003ft 186kts
15-Nov-20 16:06 34.215028 -118.906600 87 5003ft 186kts
15-Nov-20 16:07 34.216031 -118.844249 85 5012ft 185kts
15-Nov-20 16:08 34.217736 -118.781791 86 5012ft 186kts
15-Nov-20 16:09 34.218520 -118.719411 87 5014ft 184kts
15-Nov-20 16:10 34.219125 -118.657510 87 5015ft 182kts
15-Nov-20 16:11 34.219848 -118.596706 87 5000ft 181kts
15-Nov-20 16:12 34.220811 -118.535856 86 4992ft 180kts
15-Nov-20 16:13 34.216499 -118.476450 104 5004ft 179kts
15-Nov-20 16:14 34.200679 -118.418963 108 4997ft 180kts
15-Nov-20 16:15 34.183873 -118.361695 107 4999ft 180kts
15-Nov-20 16:16 34.167106 -118.304564 108 4999ft 180kts
15-Nov-20 16:17 34.150348 -118.247473 108 4997ft 180kts
15-Nov-20 16:18 34.133447 -118.190568 109 4986ft 180kts
15-Nov-20 16:19 34.115920 -118.133980 109 4984ft 180kts
15-Nov-20 16:19 34.101249 -118.086672 109 4982ft 180kts
15-Nov-20 16:21 34.080830 -118.020801 109 4989ft 179kts
15-Nov-20 16:21 34.065747 -117.974070 110 4994ft 179kts
15-Nov-20 16:23 34.044909 -117.908719 109 4998ft 178kts
15-Nov-20 16:23 34.030506 -117.862058 108 4999ft 179kts
15-Nov-20 16:25 34.010164 -117.796040 108 4996ft 179kts
15-Nov-20 16:26 33.992863 -117.739326 108 4992ft 181kts
15-Nov-20 16:26 33.976436 -117.692407 112 4990ft 182kts
15-Nov-20 16:28 33.952981 -117.626743 114 4991ft 183kts
15-Nov-20 16:28 33.935958 -117.579720 113 4992ft 184kts
15-Nov-20 16:29 33.918459 -117.522545 85 5002ft 181kts
15-Nov-20 16:30 33.919519 -117.461516 86 4992ft 181kts
15-Nov-20 16:31 33.921555 -117.401152 85 4991ft 179kts
15-Nov-20 16:32 33.932001 -117.346070 22 4974ft 173kts
15-Nov-20 16:33 33.980026 -117.343175 4 4804ft 170kts
15-Nov-20 16:34 34.024069 -117.340966 1 4800ft 148kts
15-Nov-20 16:35 34.054966 -117.358350 267 4654ft 145kts
15-Nov-20 16:36 34.054798 -117.409202 272 3934ft 150kts
15-Nov-20 16:37 34.054169 -117.459221 269 3087ft 147kts
15-Nov-20 16:38 34.054929 -117.503559 271 2279ft 117kts
15-Nov-20 16:39 34.054824 -117.539604 270 1664ft 96kts
15-Nov-20 16:40 34.054911 -117.568440 269 1227ft 73kts
15-Nov-20 16:41 34.054965 -117.590810 270 918ft 44kts
15-Nov-20 16:42 34.053931 -117.594807 247 914ft 5kts
15-Nov-20 16:43 34.053842 -117.599707 269 913ft 17kts
15-Nov-20 16:44 34.053461 -117.604196 152 915ft 8kts
15-Nov-20 16:45 34.052965 -117.603712 0 913ft 0kts
15-Nov-20 16:46 34.052965 -117.603712 0 913ft 0kts
15-Nov-20 16:47 34.052965 -117.603712 0 913ft 0kts
15-Nov-20 16:48 34.052965 -117.603712 0 913ft 0kts
15-Nov-20 16:56 35.259540 -113.942031 226 3390ft 0kts

Navigation Log

Ident Type
Flight plan parsing failed, navigation log unavailable